createdAt,value
2023-03-20T00:02:42.132Z,1.47
2023-03-20T00:05:33.562Z,0.23
2023-03-20T00:08:22.628Z,0.97
2023-03-20T00:11:26.608Z,0.90
2023-03-20T00:14:18.020Z,0.30
2023-03-20T00:17:12.135Z,0.80
2023-03-20T00:20:00.786Z,0.50
2023-03-20T00:22:49.773Z,0.67
2023-03-20T00:25:40.169Z,0.80
2023-03-20T00:28:40.801Z,0.83
2023-03-20T00:31:31.757Z,1.00
2023-03-20T00:34:25.949Z,1.17
2023-03-20T00:37:14.715Z,0.97
2023-03-20T00:40:03.346Z,0.97
2023-03-20T00:42:58.379Z,1.10
2023-03-20T00:45:47.362Z,0.30
2023-03-20T00:48:43.460Z,0.60
2023-03-20T00:51:33.842Z,1.03
2023-03-20T00:54:22.435Z,0.53
2023-03-20T00:57:16.578Z,0.30
2023-03-20T01:00:09.566Z,1.37
2023-03-20T01:02:59.228Z,0.60
2023-03-20T01:05:48.460Z,0.93
2023-03-20T01:08:38.489Z,1.03
2023-03-20T01:11:27.155Z,1.20
2023-03-20T01:14:18.061Z,0.50
2023-03-20T01:17:06.920Z,1.40
2023-03-20T01:19:55.540Z,0.90
2023-03-20T01:22:44.260Z,1.30
2023-03-20T01:25:34.720Z,0.67
2023-03-20T01:28:25.210Z,1.33
2023-03-20T01:31:13.859Z,0.70
2023-03-20T01:34:02.444Z,1.20
2023-03-20T01:36:53.145Z,1.23
2023-03-20T01:39:42.021Z,0.80
2023-03-20T01:42:32.571Z,1.60
2023-03-20T01:45:26.014Z,1.17
2023-03-20T01:48:17.891Z,2.07
2023-03-20T01:51:06.917Z,2.20
2023-03-20T01:53:59.192Z,2.20
2023-03-20T01:56:51.254Z,1.07
2023-03-20T01:59:45.426Z,1.87
2023-03-20T02:02:34.560Z,3.73
2023-03-20T02:05:24.421Z,2.53
2023-03-20T02:08:24.055Z,1.77
2023-03-20T02:11:13.439Z,1.27
2023-03-20T02:14:03.840Z,2.90
2023-03-20T02:16:54.142Z,2.13
2023-03-20T02:20:01.730Z,3.33
2023-03-20T02:23:44.091Z,3.43
2023-03-20T02:26:53.623Z,2.70
2023-03-20T02:30:07.411Z,1.97
2023-03-20T02:33:42.735Z,2.20
2023-03-20T02:37:05.414Z,1.77
2023-03-20T02:40:08.860Z,3.33
2023-03-20T02:43:04.502Z,2.97
2023-03-20T02:45:57.919Z,2.97
2023-03-20T02:48:54.581Z,1.73
2023-03-20T02:51:49.389Z,2.47
2023-03-20T02:54:47.257Z,2.67
2023-03-20T02:57:45.465Z,3.00
2023-03-20T03:00:37.742Z,1.83
2023-03-20T03:03:32.717Z,2.47
2023-03-20T03:06:26.275Z,2.93
2023-03-20T03:09:18.732Z,4.07
2023-03-20T03:12:12.541Z,2.17
2023-03-20T03:15:05.058Z,2.57
2023-03-20T03:17:54.080Z,4.47
2023-03-20T03:20:45.234Z,3.17
2023-03-20T03:23:38.039Z,4.03
2023-03-20T03:26:28.886Z,2.87
2023-03-20T03:29:19.924Z,2.07
2023-03-20T03:32:31.336Z,3.03
2023-03-20T03:35:22.474Z,2.37
2023-03-20T03:38:26.555Z,2.77
2023-03-20T03:41:23.838Z,3.33
2023-03-20T03:44:17.418Z,6.80
2023-03-20T03:47:11.606Z,1.87
2023-03-20T03:50:04.683Z,3.83
2023-03-20T03:52:55.449Z,3.57
2023-03-20T03:55:49.141Z,3.63
2023-03-20T03:58:41.733Z,2.97
2023-03-20T04:01:32.576Z,2.93
2023-03-20T04:04:25.539Z,4.23
2023-03-20T04:07:15.616Z,2.73
2023-03-20T04:10:04.656Z,3.03
2023-03-20T04:12:53.332Z,2.33
2023-03-20T04:15:42.540Z,1.93
2023-03-20T04:18:31.181Z,4.23
2023-03-20T04:21:21.437Z,2.47
2023-03-20T04:24:10.206Z,2.67
2023-03-20T04:26:58.760Z,4.27
2023-03-20T04:29:47.793Z,4.03
2023-03-20T04:32:36.404Z,2.83
2023-03-20T04:35:25.078Z,2.30
2023-03-20T04:38:15.364Z,2.40
2023-03-20T04:41:04.377Z,2.93
2023-03-20T04:43:53.010Z,3.23
2023-03-20T04:46:41.636Z,2.90
2023-03-20T04:49:30.250Z,2.37
2023-03-20T04:52:18.835Z,3.80
2023-03-20T04:55:09.841Z,1.93
2023-03-20T04:57:58.424Z,1.73
2023-03-20T05:00:47.131Z,3.10
2023-03-20T05:03:35.761Z,2.77
2023-03-20T05:06:24.373Z,2.10
2023-03-20T05:09:13.035Z,2.47
2023-03-20T05:12:03.254Z,2.70
2023-03-20T05:14:51.986Z,2.73
2023-03-20T05:17:40.746Z,3.63
2023-03-20T05:20:29.374Z,4.50
2023-03-20T05:23:17.948Z,2.17
2023-03-20T05:26:07.500Z,3.43
2023-03-20T05:28:57.521Z,1.50
2023-03-20T05:31:46.105Z,1.27
2023-03-20T05:34:34.734Z,2.53
2023-03-20T05:37:23.340Z,3.50
2023-03-20T05:40:13.764Z,2.20
2023-03-20T05:43:02.419Z,1.53
2023-03-20T05:45:52.598Z,2.60
2023-03-20T05:48:41.173Z,3.50
2023-03-20T05:51:29.850Z,3.10
2023-03-20T05:54:18.600Z,3.13
2023-03-20T05:57:07.245Z,2.60
2023-03-20T05:59:55.888Z,2.13
2023-03-20T06:02:47.508Z,1.43
2023-03-20T06:05:36.778Z,4.17
2023-03-20T06:08:25.842Z,1.70
2023-03-20T06:11:14.517Z,2.70
2023-03-20T06:14:03.177Z,3.63
2023-03-20T06:16:52.279Z,3.00
2023-03-20T06:19:42.282Z,2.13
2023-03-20T06:22:30.902Z,2.20
2023-03-20T06:25:20.743Z,3.03
2023-03-20T06:28:09.336Z,2.20
2023-03-20T06:30:58.113Z,3.53
2023-03-20T06:33:46.739Z,3.43
2023-03-20T06:36:36.783Z,3.47
2023-03-20T06:39:25.394Z,2.60
2023-03-20T06:42:16.168Z,3.10
2023-03-20T06:45:05.625Z,2.57
2023-03-20T06:47:54.207Z,2.63
2023-03-20T06:50:42.853Z,1.33
2023-03-20T06:53:32.850Z,2.23
2023-03-20T06:56:21.474Z,2.03
2023-03-20T06:59:10.112Z,2.30
2023-03-20T07:01:58.898Z,2.37
2023-03-20T07:04:47.965Z,2.10
2023-03-20T07:07:36.551Z,3.87
2023-03-20T07:10:26.791Z,3.40
2023-03-20T07:13:15.590Z,1.60
2023-03-20T07:16:05.393Z,2.33
2023-03-20T07:18:54.199Z,3.47
2023-03-20T07:21:43.024Z,2.23
2023-03-20T07:24:32.186Z,2.23
2023-03-20T07:27:22.550Z,2.97
2023-03-20T07:30:13.415Z,3.17
2023-03-20T07:33:02.048Z,2.13
2023-03-20T07:35:54.887Z,2.17
2023-03-20T07:38:43.513Z,1.57
2023-03-20T07:41:32.257Z,3.37
2023-03-20T07:44:22.463Z,2.37
2023-03-20T07:47:11.411Z,1.33
2023-03-20T07:50:00.032Z,1.37
2023-03-20T07:52:49.557Z,2.97
2023-03-20T07:55:41.079Z,1.87
2023-03-20T07:58:29.777Z,2.37
2023-03-20T08:01:19.843Z,1.70
2023-03-20T08:04:08.838Z,2.07
2023-03-20T08:06:57.620Z,1.20
2023-03-20T08:09:46.450Z,1.77
2023-03-20T08:12:36.702Z,2.50
2023-03-20T08:15:25.362Z,1.63
2023-03-20T08:18:15.404Z,2.50
2023-03-20T08:21:06.234Z,1.60
2023-03-20T08:23:54.876Z,2.57
2023-03-20T08:26:44.367Z,2.33
2023-03-20T08:29:32.988Z,1.97
2023-03-20T08:32:21.623Z,2.43
2023-03-20T08:35:29.715Z,2.33
2023-03-20T08:38:20.625Z,1.63
2023-03-20T08:41:09.619Z,1.90
2023-03-20T08:43:58.243Z,1.23
2023-03-20T08:46:47.561Z,0.83
2023-03-20T08:49:37.037Z,3.00
2023-03-20T08:52:27.923Z,1.63
2023-03-20T08:55:17.321Z,0.60
2023-03-20T08:58:05.980Z,1.90
2023-03-20T09:00:54.855Z,1.43
2023-03-20T09:03:43.431Z,1.80
2023-03-20T09:06:33.249Z,0.77
2023-03-20T09:09:29.385Z,1.43
2023-03-20T09:12:18.739Z,0.43
2023-03-20T09:19:14.926Z,0.87
2023-03-20T09:22:03.692Z,1.07
2023-03-20T09:24:53.942Z,1.73
2023-03-20T09:27:43.043Z,0.67
2023-03-20T09:30:31.763Z,1.30
2023-03-20T09:33:20.474Z,0.93
2023-03-20T09:36:11.743Z,0.50
2023-03-20T09:39:01.016Z,0.93
2023-03-20T09:41:57.553Z,0.60
2023-03-20T09:44:54.844Z,0.73
2023-03-20T09:47:55.755Z,0.40
2023-03-20T09:50:53.228Z,1.07
2023-03-20T09:53:46.427Z,0.93
2023-03-20T09:56:37.624Z,1.23
2023-03-20T09:59:29.408Z,0.83
2023-03-20T10:02:24.571Z,0.87
2023-03-20T10:05:22.504Z,0.60
2023-03-20T10:08:17.112Z,0.83
2023-03-20T10:11:20.265Z,1.20
2023-03-20T10:14:18.732Z,0.67
2023-03-20T10:17:22.166Z,0.47
2023-03-20T10:20:23.201Z,0.37
2023-03-20T10:23:21.568Z,0.33
2023-03-20T10:26:13.203Z,0.40
2023-03-20T10:29:08.056Z,0.60
2023-03-20T10:32:04.760Z,0.60
2023-03-20T10:35:10.139Z,0.50
2023-03-20T10:38:11.666Z,0.40
2023-03-20T10:41:01.036Z,0.40
2023-03-20T10:43:52.285Z,0.33
2023-03-20T10:46:44.854Z,0.30
2023-03-20T10:49:38.576Z,1.00
2023-03-20T10:52:32.468Z,0.47
2023-03-20T10:55:25.710Z,0.20
2023-03-20T10:58:20.530Z,0.30
2023-03-20T11:01:09.659Z,0.83
2023-03-20T11:03:58.364Z,0.73
2023-03-20T11:06:54.396Z,0.67
2023-03-20T11:09:44.626Z,0.30
2023-03-20T11:12:34.892Z,0.93
2023-03-20T11:15:25.689Z,0.67
2023-03-20T11:18:17.063Z,0.53
2023-03-20T11:21:06.375Z,0.77
2023-03-20T11:23:56.668Z,0.30
2023-03-20T11:26:46.739Z,0.47
2023-03-20T11:29:36.267Z,0.63
2023-03-20T11:32:30.529Z,0.53
2023-03-20T11:35:27.673Z,0.40
2023-03-20T11:38:19.234Z,0.97
2023-03-20T11:41:19.645Z,0.50
2023-03-20T11:44:25.574Z,0.83
2023-03-20T11:47:19.905Z,0.20
2023-03-20T11:50:26.002Z,0.27
2023-03-20T11:53:27.309Z,0.40
2023-03-20T11:56:23.764Z,0.40
2023-03-20T11:59:18.312Z,0.40
2023-03-20T12:02:20.128Z,0.37
2023-03-20T12:05:28.499Z,0.93
2023-03-20T12:08:20.401Z,0.30
2023-03-20T12:11:32.914Z,1.03
2023-03-20T12:14:31.745Z,0.23
2023-03-20T12:17:45.592Z,0.40
2023-03-20T12:20:37.888Z,0.83
2023-03-20T12:23:35.851Z,0.30
2023-03-20T12:26:30.239Z,0.23
2023-03-20T12:29:31.695Z,0.20
2023-03-20T12:32:24.785Z,0.80
2023-03-20T12:35:18.932Z,0.27
2023-03-20T12:38:24.454Z,0.33
2023-03-20T12:41:16.216Z,0.50
2023-03-20T12:44:37.585Z,0.23
2023-03-20T12:47:55.102Z,0.60
2023-03-20T12:50:46.467Z,0.37
2023-03-20T12:53:47.298Z,0.43
2023-03-20T12:56:51.626Z,0.40
2023-03-20T12:59:57.850Z,0.30
2023-03-20T13:03:00.296Z,0.63
2023-03-20T13:05:58.058Z,0.30
2023-03-20T13:09:05.148Z,0.60
2023-03-20T13:12:02.018Z,0.40
2023-03-20T13:14:59.868Z,0.43
2023-03-20T13:17:54.494Z,0.50
2023-03-20T13:20:48.048Z,1.03
2023-03-20T13:23:45.613Z,0.30
2023-03-20T13:26:40.031Z,0.20
2023-03-20T13:29:35.425Z,0.47
2023-03-20T13:32:33.551Z,0.20
2023-03-20T13:35:42.642Z,0.30
2023-03-20T13:38:36.440Z,0.87
2023-03-20T13:41:26.547Z,0.50
2023-03-20T13:44:17.231Z,0.20
2023-03-20T13:47:12.583Z,0.40
2023-03-20T13:50:13.742Z,0.20
2023-03-20T13:53:10.230Z,0.47
2023-03-20T13:56:08.867Z,0.20
2023-03-20T13:59:27.818Z,0.30
2023-03-20T14:02:36.831Z,0.30
2023-03-20T14:05:28.777Z,0.20
2023-03-20T14:08:32.521Z,0.30
2023-03-20T14:11:37.370Z,0.30
2023-03-20T14:14:29.319Z,0.33
2023-03-20T14:17:21.076Z,0.43
2023-03-20T14:20:21.646Z,0.30
2023-03-20T14:23:20.664Z,0.40
2023-03-20T14:26:21.811Z,0.60
2023-03-20T14:29:33.766Z,0.20
2023-03-20T14:32:37.607Z,0.53
2023-03-20T14:35:29.154Z,0.30
2023-03-20T14:38:25.343Z,1.50
2023-03-20T14:41:18.277Z,0.50
2023-03-20T14:44:20.991Z,0.60
2023-03-20T14:47:19.008Z,0.37
2023-03-20T14:50:14.733Z,0.30
2023-03-20T14:53:14.992Z,0.40
2023-03-20T14:56:10.904Z,0.23
2023-03-20T14:59:03.375Z,0.37
2023-03-20T15:01:59.262Z,0.70
2023-03-20T15:04:48.692Z,0.20
2023-03-20T15:07:40.313Z,0.30
2023-03-20T15:10:29.094Z,0.60
2023-03-20T15:13:20.659Z,0.30
2023-03-20T15:16:11.796Z,0.40
2023-03-20T15:19:01.061Z,0.30
2023-03-20T15:21:50.531Z,0.30
2023-03-20T15:24:39.236Z,0.60
2023-03-20T15:27:30.803Z,1.07
2023-03-20T15:30:23.394Z,0.27
2023-03-20T15:33:18.798Z,0.53
2023-03-20T15:36:13.091Z,0.20
2023-03-20T15:39:08.700Z,0.27
2023-03-20T15:41:59.470Z,0.50
2023-03-20T15:44:49.386Z,0.97
2023-03-20T15:47:39.480Z,0.80
2023-03-20T15:50:28.290Z,0.77
2023-03-20T15:53:21.005Z,0.60
2023-03-20T15:56:18.549Z,0.40
2023-03-20T15:59:14.239Z,0.97
2023-03-20T16:02:04.799Z,0.20
2023-03-20T16:04:56.490Z,0.73
2023-03-20T16:07:45.521Z,0.30
2023-03-20T16:10:36.599Z,0.33
2023-03-20T16:13:27.103Z,0.30
2023-03-20T16:16:18.086Z,0.50
2023-03-20T16:19:09.556Z,0.50
2023-03-20T16:22:01.586Z,0.40
2023-03-20T16:24:52.485Z,0.70
2023-03-20T16:27:42.468Z,0.60
2023-03-20T16:30:33.506Z,0.50
2023-03-20T16:33:22.302Z,0.30
2023-03-20T16:36:18.976Z,0.20
2023-03-20T16:39:11.760Z,0.30
2023-03-20T16:42:24.092Z,0.20
2023-03-20T16:45:26.514Z,0.23
2023-03-20T16:48:33.348Z,0.67
2023-03-20T16:51:25.436Z,0.20
2023-03-20T16:54:21.758Z,0.90
2023-03-20T16:57:15.895Z,0.50
2023-03-20T17:00:08.439Z,0.77
2023-03-20T17:03:07.158Z,0.53
2023-03-20T17:05:58.055Z,0.27
2023-03-20T17:08:50.271Z,0.27
2023-03-20T17:11:46.305Z,0.93
2023-03-20T17:14:35.141Z,1.33
2023-03-20T17:17:25.923Z,0.30
2023-03-20T17:20:21.264Z,0.20
2023-03-20T17:23:14.997Z,0.43
2023-03-20T17:26:03.705Z,0.60
2023-03-20T17:28:53.875Z,0.30
2023-03-20T17:31:42.672Z,0.37
2023-03-20T17:34:31.466Z,0.47
2023-03-20T17:37:27.147Z,0.93
2023-03-20T17:40:21.155Z,0.30
2023-03-20T17:43:12.659Z,0.40
2023-03-20T17:46:02.963Z,1.63
2023-03-20T17:48:52.596Z,1.40
2023-03-20T17:51:41.317Z,1.30
2023-03-20T17:54:29.978Z,0.40
2023-03-20T17:57:23.340Z,0.90
2023-03-20T18:00:16.754Z,0.70
2023-03-20T18:03:06.915Z,0.77
2023-03-20T18:05:56.966Z,0.40
2023-03-20T18:08:45.872Z,0.87
2023-03-20T18:11:34.595Z,0.40
2023-03-20T18:14:23.272Z,0.40
2023-03-20T18:17:13.900Z,0.60
2023-03-20T18:20:03.989Z,0.70
2023-03-20T18:22:52.680Z,0.50
2023-03-20T18:25:41.583Z,0.90
2023-03-20T18:28:30.543Z,0.67
2023-03-20T18:31:19.922Z,0.40
2023-03-20T18:34:08.874Z,0.23
2023-03-20T18:36:58.971Z,1.37
2023-03-20T18:39:47.628Z,0.77
2023-03-20T18:42:36.439Z,0.40
2023-03-20T18:45:26.409Z,0.93
2023-03-20T18:48:16.240Z,0.40
2023-03-20T18:51:05.116Z,0.57
2023-03-20T18:53:55.187Z,0.40
2023-03-20T18:56:43.997Z,0.30
2023-03-20T18:59:32.691Z,0.20
2023-03-20T19:02:21.366Z,0.40
2023-03-20T19:05:11.569Z,0.30
2023-03-20T19:08:01.073Z,0.57
2023-03-20T19:10:51.761Z,0.57
2023-03-20T19:13:40.468Z,0.33
2023-03-20T19:16:30.905Z,0.20
2023-03-20T19:19:19.632Z,0.60
2023-03-20T19:22:13.083Z,0.67
2023-03-20T19:25:05.848Z,1.13
2023-03-20T19:27:55.955Z,2.53
2023-03-20T19:30:44.614Z,3.03
2023-03-20T19:33:33.630Z,0.90
2023-03-20T19:36:26.881Z,0.60
2023-03-20T19:39:16.215Z,1.77
2023-03-20T19:42:32.193Z,0.60
2023-03-20T19:45:16.214Z,0.30
2023-03-20T19:48:12.632Z,0.77
2023-03-20T19:51:01.656Z,1.10
2023-03-20T19:53:51.670Z,0.40
2023-03-20T19:56:40.583Z,0.57
2023-03-20T19:59:29.733Z,0.30
2023-03-20T20:02:22.805Z,0.50
2023-03-20T20:05:20.417Z,0.70
2023-03-20T20:11:18.778Z,0.27
2023-03-20T20:14:10.594Z,0.20
2023-03-20T20:17:02.342Z,0.20
2023-03-20T20:19:54.468Z,0.30
2023-03-20T20:22:43.403Z,0.23
2023-03-20T20:25:32.100Z,0.30
2023-03-20T20:28:22.707Z,0.20
2023-03-20T20:31:11.378Z,0.50
2023-03-20T20:34:52.759Z,0.20
2023-03-20T20:37:53.764Z,0.20
2023-03-20T20:40:21.391Z,1.13
2023-03-20T20:43:11.112Z,0.50
2023-03-20T20:45:59.817Z,0.27
2023-03-20T20:48:48.570Z,0.30
2023-03-20T20:51:37.249Z,0.67
2023-03-20T20:54:27.803Z,0.47
2023-03-20T20:57:16.561Z,0.60
2023-03-20T21:00:07.468Z,0.40
2023-03-20T21:02:56.206Z,0.30
2023-03-20T21:05:44.906Z,0.73
2023-03-20T21:08:34.865Z,0.40
2023-03-20T21:11:25.387Z,1.07
2023-03-20T21:14:15.153Z,0.30
2023-03-20T21:17:04.404Z,0.90
2023-03-20T21:19:53.343Z,1.07
2023-03-20T21:22:42.308Z,0.67
2023-03-20T21:25:47.821Z,0.37
2023-03-20T21:28:38.417Z,0.40
2023-03-20T21:31:31.056Z,1.00
2023-03-20T21:34:20.177Z,0.63
2023-03-20T21:38:15.786Z,0.50
2023-03-20T21:40:18.219Z,0.30
2023-03-20T21:43:07.533Z,0.40
2023-03-20T21:46:35.198Z,0.83
2023-03-20T21:56:23.205Z,0.40
2023-03-20T21:59:19.603Z,0.87
2023-03-20T22:02:09.320Z,0.20
2023-03-20T22:18:12.119Z,0.57
2023-03-20T22:21:30.043Z,0.20
2023-03-20T22:31:09.021Z,0.30
2023-03-20T22:34:09.837Z,0.37
2023-03-20T22:37:37.461Z,0.50
2023-03-20T22:40:43.253Z,0.80
2023-03-20T22:43:16.357Z,0.90
2023-03-20T22:46:08.106Z,1.33
2023-03-20T22:49:02.267Z,0.20
2023-03-20T22:52:08.263Z,0.30
2023-03-20T22:55:01.085Z,0.30
2023-03-20T22:58:03.875Z,0.33
2023-03-20T23:00:55.240Z,0.57
2023-03-20T23:03:44.068Z,0.80
2023-03-20T23:06:34.142Z,0.27
2023-03-20T23:09:22.861Z,0.27
2023-03-20T23:12:11.592Z,0.30
2023-03-20T23:15:00.633Z,0.30
2023-03-20T23:17:49.322Z,1.17
2023-03-20T23:20:38.194Z,0.20
2023-03-20T23:23:29.471Z,0.30
2023-03-20T23:26:21.149Z,0.30
2023-03-20T23:29:09.879Z,0.73
2023-03-20T23:31:58.583Z,0.40
2023-03-20T23:34:47.347Z,0.23
2023-03-20T23:37:36.939Z,0.40
2023-03-20T23:40:27.204Z,0.40
2023-03-20T23:43:15.996Z,0.60
2023-03-20T23:46:04.896Z,0.40
2023-03-20T23:48:53.638Z,0.50
2023-03-20T23:51:42.361Z,0.60
2023-03-20T23:54:31.123Z,0.30
2023-03-20T23:57:21.349Z,0.50
